sensor_id;sensor_type;location;lat;lon;timestamp;pressure;altitude;pressure_sealevel;temperature;humidity
6032;BME280;3044;43.232;27.972;2023-07-02T00:02:15;45092.88;;;-143.84;77.85
6032;BME280;3044;43.232;27.972;2023-07-02T00:04:44;45071.91;;;-143.84;77.71
6032;BME280;3044;43.232;27.972;2023-07-02T00:07:11;45075.72;;;-143.84;77.74
6032;BME280;3044;43.232;27.972;2023-07-02T00:09:38;45049.06;;;-143.84;77.68
6032;BME280;3044;43.232;27.972;2023-07-02T00:12:05;45043.34;;;-143.84;77.84
6032;BME280;3044;43.232;27.972;2023-07-02T00:14:33;45045.25;;;-143.84;77.57
6032;BME280;3044;43.232;27.972;2023-07-02T00:17:00;45049.06;;;-143.84;77.60
6032;BME280;3044;43.232;27.972;2023-07-02T00:19:27;45039.53;;;-143.84;76.89
6032;BME280;3044;43.232;27.972;2023-07-02T00:21:55;45052.88;;;-143.84;77.08
6032;BME280;3044;43.232;27.972;2023-07-02T00:24:23;45060.50;;;-143.84;76.84
6032;BME280;3044;43.232;27.972;2023-07-02T00:26:50;45043.34;;;-143.84;76.97
6032;BME280;3044;43.232;27.972;2023-07-02T00:29:17;45045.25;;;-143.84;77.60
6032;BME280;3044;43.232;27.972;2023-07-02T00:31:44;45052.88;;;-143.84;77.98
6032;BME280;3044;43.232;27.972;2023-07-02T00:34:12;45073.81;;;-143.84;78.34
6032;BME280;3044;43.232;27.972;2023-07-02T00:36:39;45064.31;;;-143.84;79.21
6032;BME280;3044;43.232;27.972;2023-07-02T00:39:08;45079.53;;;-143.84;79.21
6032;BME280;3044;43.232;27.972;2023-07-02T00:41:37;45043.34;;;-143.84;80.19
6032;BME280;3044;43.232;27.972;2023-07-02T00:44:04;45077.63;;;-143.84;80.82
6032;BME280;3044;43.232;27.972;2023-07-02T00:46:31;45085.25;;;-143.84;81.09
6032;BME280;3044;43.232;27.972;2023-07-02T00:48:59;45073.81;;;-143.84;81.11
6032;BME280;3044;43.232;27.972;2023-07-02T00:51:27;45056.69;;;-143.84;82.01
6032;BME280;3044;43.232;27.972;2023-07-02T00:53:57;45043.34;;;-143.84;81.93
6032;BME280;3044;43.232;27.972;2023-07-02T00:56:26;45070.00;;;-143.84;82.36
6032;BME280;3044;43.232;27.972;2023-07-02T00:58:54;45064.31;;;-143.84;82.21
6032;BME280;3044;43.232;27.972;2023-07-02T01:01:25;45070.00;;;-143.84;82.50
6032;BME280;3044;43.232;27.972;2023-07-02T01:03:56;45056.69;;;-143.84;83.15
6032;BME280;3044;43.232;27.972;2023-07-02T01:06:25;45056.69;;;-143.84;83.06
6032;BME280;3044;43.232;27.972;2023-07-02T01:08:54;45081.44;;;-143.84;82.90
6032;BME280;3044;43.232;27.972;2023-07-02T01:11:25;45052.88;;;-143.84;83.31
6032;BME280;3044;43.232;27.972;2023-07-02T01:13:57;45070.00;;;-143.84;83.70
6032;BME280;3044;43.232;27.972;2023-07-02T01:16:27;45052.88;;;-143.84;83.93
6032;BME280;3044;43.232;27.972;2023-07-02T01:18:58;45070.00;;;-143.84;84.75
6032;BME280;3044;43.232;27.972;2023-07-02T01:21:30;45049.06;;;-143.84;84.75
6032;BME280;3044;43.232;27.972;2023-07-02T01:23:59;45045.25;;;-143.84;85.17
6032;BME280;3044;43.232;27.972;2023-07-02T01:26:29;45071.91;;;-143.84;85.23
6032;BME280;3044;43.232;27.972;2023-07-02T01:28:57;45033.84;;;-143.84;85.76
6032;BME280;3044;43.232;27.972;2023-07-02T01:31:24;45064.31;;;-143.84;85.88
6032;BME280;3044;43.232;27.972;2023-07-02T01:33:51;45043.34;;;-143.84;86.76
6032;BME280;3044;43.232;27.972;2023-07-02T01:36:18;45035.75;;;-143.84;86.60
6032;BME280;3044;43.232;27.972;2023-07-02T01:38:47;45064.31;;;-143.84;86.96
6032;BME280;3044;43.232;27.972;2023-07-02T01:41:14;45031.94;;;-143.84;87.50
6032;BME280;3044;43.232;27.972;2023-07-02T01:43:41;45031.94;;;-143.84;88.32
6032;BME280;3044;43.232;27.972;2023-07-02T01:46:08;45037.66;;;-143.84;88.62
6032;BME280;3044;43.232;27.972;2023-07-02T01:48:35;45037.66;;;-143.84;88.67
6032;BME280;3044;43.232;27.972;2023-07-02T01:51:02;45035.75;;;-143.84;87.99
6032;BME280;3044;43.232;27.972;2023-07-02T01:53:29;45039.53;;;-143.84;87.93
6032;BME280;3044;43.232;27.972;2023-07-02T01:55:58;45022.41;;;-143.84;87.96
6032;BME280;3044;43.232;27.972;2023-07-02T01:58:25;45049.06;;;-143.84;88.58
6032;BME280;3044;43.232;27.972;2023-07-02T02:00:52;45022.41;;;-143.84;90.19
6032;BME280;3044;43.232;27.972;2023-07-02T02:03:20;45020.50;;;-143.84;90.75
6032;BME280;3044;43.232;27.972;2023-07-02T02:05:47;45026.22;;;-143.84;90.67
6032;BME280;3044;43.232;27.972;2023-07-02T02:08:14;45018.59;;;-143.84;90.89
6032;BME280;3044;43.232;27.972;2023-07-02T02:10:41;45022.41;;;-143.84;90.98
6032;BME280;3044;43.232;27.972;2023-07-02T02:13:09;45035.75;;;-143.84;91.27
6032;BME280;3044;43.232;27.972;2023-07-02T02:15:36;45012.88;;;-143.84;92.09
6032;BME280;3044;43.232;27.972;2023-07-02T02:18:04;45016.69;;;-143.84;92.27
6032;BME280;3044;43.232;27.972;2023-07-02T02:20:31;45007.19;;;-143.84;92.48
6032;BME280;3044;43.232;27.972;2023-07-02T02:22:58;45033.84;;;-143.84;92.35
6032;BME280;3044;43.232;27.972;2023-07-02T02:25:25;45012.88;;;-143.84;92.37
6032;BME280;3044;43.232;27.972;2023-07-02T02:27:52;45018.59;;;-143.84;92.08
6032;BME280;3044;43.232;27.972;2023-07-02T02:30:20;45050.97;;;-143.84;91.69
6032;BME280;3044;43.232;27.972;2023-07-02T02:32:47;45031.94;;;-143.84;91.07
6032;BME280;3044;43.232;27.972;2023-07-02T02:35:15;45033.84;;;-143.84;90.38
6032;BME280;3044;43.232;27.972;2023-07-02T02:37:42;45022.41;;;-143.84;89.79
6032;BME280;3044;43.232;27.972;2023-07-02T02:40:10;45016.69;;;-143.84;89.84
6032;BME280;3044;43.232;27.972;2023-07-02T02:42:38;45031.94;;;-143.84;89.14
6032;BME280;3044;43.232;27.972;2023-07-02T02:45:06;45026.22;;;-143.84;88.88
6032;BME280;3044;43.232;27.972;2023-07-02T02:47:35;45037.66;;;-143.84;87.77
6032;BME280;3044;43.232;27.972;2023-07-02T02:50:02;45030.03;;;-143.84;87.56
6032;BME280;3044;43.232;27.972;2023-07-02T02:52:30;45043.34;;;-143.84;87.56
6032;BME280;3044;43.232;27.972;2023-07-02T02:54:57;45050.97;;;-143.84;87.59
6032;BME280;3044;43.232;27.972;2023-07-02T02:57:24;45024.31;;;-143.84;87.83
6032;BME280;3044;43.232;27.972;2023-07-02T02:59:51;45054.78;;;-143.84;87.47
6032;BME280;3044;43.232;27.972;2023-07-02T03:02:18;45028.13;;;-143.84;87.49
6032;BME280;3044;43.232;27.972;2023-07-02T03:04:47;45037.66;;;-143.84;87.39
6032;BME280;3044;43.232;27.972;2023-07-02T03:07:14;45041.44;;;-143.84;87.33
6032;BME280;3044;43.232;27.972;2023-07-02T03:09:42;45052.88;;;-143.84;87.73
6032;BME280;3044;43.232;27.972;2023-07-02T03:12:09;45043.34;;;-143.84;89.73
6032;BME280;3044;43.232;27.972;2023-07-02T03:14:36;45007.19;;;-143.84;89.58
6032;BME280;3044;43.232;27.972;2023-07-02T03:17:04;45033.84;;;-143.84;89.80
6032;BME280;3044;43.232;27.972;2023-07-02T03:19:31;45018.59;;;-143.84;90.27
6032;BME280;3044;43.232;27.972;2023-07-02T03:21:59;45014.78;;;-143.84;90.32
6032;BME280;3044;43.232;27.972;2023-07-02T03:24:26;45009.09;;;-143.84;90.50
6032;BME280;3044;43.232;27.972;2023-07-02T03:26:53;45012.88;;;-143.84;90.32
6032;BME280;3044;43.232;27.972;2023-07-02T03:29:20;45001.47;;;-143.84;89.90
6032;BME280;3044;43.232;27.972;2023-07-02T03:31:47;45022.41;;;-143.84;89.58
6032;BME280;3044;43.232;27.972;2023-07-02T03:34:15;45024.31;;;-143.84;89.17
6032;BME280;3044;43.232;27.972;2023-07-02T03:36:42;45016.69;;;-143.84;88.19
6032;BME280;3044;43.232;27.972;2023-07-02T03:39:10;45039.53;;;-143.84;85.91
6032;BME280;3044;43.232;27.972;2023-07-02T03:41:38;45037.66;;;-143.84;83.52
6032;BME280;3044;43.232;27.972;2023-07-02T03:44:05;45026.22;;;-143.84;79.79
6032;BME280;3044;43.232;27.972;2023-07-02T03:46:32;45028.13;;;-143.84;77.13
6032;BME280;3044;43.232;27.972;2023-07-02T03:48:59;45016.69;;;-143.84;74.64
6032;BME280;3044;43.232;27.972;2023-07-02T03:51:26;45003.38;;;-143.84;72.75
6032;BME280;3044;43.232;27.972;2023-07-02T03:53:54;45037.66;;;-143.84;72.96
6032;BME280;3044;43.232;27.972;2023-07-02T03:56:22;45030.03;;;-143.84;74.19
6032;BME280;3044;43.232;27.972;2023-07-02T03:58:50;45028.13;;;-143.84;74.01
6032;BME280;3044;43.232;27.972;2023-07-02T04:01:17;45020.50;;;-143.84;73.39
6032;BME280;3044;43.232;27.972;2023-07-02T04:03:48;45033.84;;;-143.84;73.90
6032;BME280;3044;43.232;27.972;2023-07-02T04:06:15;45020.50;;;-143.84;73.62
6032;BME280;3044;43.232;27.972;2023-07-02T04:08:42;45024.31;;;-143.84;73.90
6032;BME280;3044;43.232;27.972;2023-07-02T04:11:10;45024.31;;;-143.84;73.65
6032;BME280;3044;43.232;27.972;2023-07-02T04:13:39;45026.22;;;-143.84;73.22
6032;BME280;3044;43.232;27.972;2023-07-02T04:16:06;45022.41;;;-143.84;71.75
6032;BME280;3044;43.232;27.972;2023-07-02T04:18:33;45005.28;;;-143.84;69.24
6032;BME280;3044;43.232;27.972;2023-07-02T04:21:01;45005.28;;;-143.84;68.30
6032;BME280;3044;43.232;27.972;2023-07-02T04:23:28;45020.50;;;-143.84;68.81
6032;BME280;3044;43.232;27.972;2023-07-02T04:25:55;45024.31;;;-143.84;67.87
6032;BME280;3044;43.232;27.972;2023-07-02T04:28:22;45007.19;;;-143.84;67.52
6032;BME280;3044;43.232;27.972;2023-07-02T04:30:51;45005.28;;;-143.84;66.68
6032;BME280;3044;43.232;27.972;2023-07-02T04:33:18;44997.66;;;-143.84;65.09
6032;BME280;3044;43.232;27.972;2023-07-02T04:35:46;45018.59;;;-143.84;66.13
6032;BME280;3044;43.232;27.972;2023-07-02T04:38:13;44999.56;;;-143.84;66.02
6032;BME280;3044;43.232;27.972;2023-07-02T04:40:40;44997.66;;;-143.84;64.19
6032;BME280;3044;43.232;27.972;2023-07-02T04:43:10;45014.78;;;-143.84;63.58
6032;BME280;3044;43.232;27.972;2023-07-02T04:45:37;44978.63;;;-143.84;63.43
6032;BME280;3044;43.232;27.972;2023-07-02T04:48:06;45014.78;;;-143.84;62.82
6032;BME280;3044;43.232;27.972;2023-07-02T04:50:33;44982.41;;;-143.84;62.88
6032;BME280;3044;43.232;27.972;2023-07-02T04:53:01;45016.69;;;-143.84;61.09
6032;BME280;3044;43.232;27.972;2023-07-02T04:55:28;44965.28;;;-143.84;59.30
6032;BME280;3044;43.232;27.972;2023-07-02T04:57:55;44980.53;;;-143.84;59.99
6032;BME280;3044;43.232;27.972;2023-07-02T05:00:22;44980.53;;;-143.84;61.04
6032;BME280;3044;43.232;27.972;2023-07-02T05:02:49;44984.31;;;-143.84;61.06
6032;BME280;3044;43.232;27.972;2023-07-02T05:05:18;44999.56;;;-143.84;62.21
6032;BME280;3044;43.232;27.972;2023-07-02T05:07:45;45014.78;;;-143.84;62.93
6032;BME280;3044;43.232;27.972;2023-07-02T05:10:12;44986.22;;;-143.84;65.10
6032;BME280;3044;43.232;27.972;2023-07-02T05:12:40;44997.66;;;-143.84;65.16
6032;BME280;3044;43.232;27.972;2023-07-02T05:15:08;45014.78;;;-143.84;65.85
6032;BME280;3044;43.232;27.972;2023-07-02T05:17:35;45003.38;;;-143.84;67.14
6032;BME280;3044;43.232;27.972;2023-07-02T05:20:02;44991.94;;;-143.84;68.35
6032;BME280;3044;43.232;27.972;2023-07-02T05:22:31;44993.84;;;-143.84;68.10
6032;BME280;3044;43.232;27.972;2023-07-02T05:24:59;44997.66;;;-143.84;69.18
6032;BME280;3044;43.232;27.972;2023-07-02T05:27:26;44999.56;;;-143.84;69.35
6032;BME280;3044;43.232;27.972;2023-07-02T05:29:53;45024.31;;;-143.84;69.66
6032;BME280;3044;43.232;27.972;2023-07-02T05:32:20;45001.47;;;-143.84;70.68
6032;BME280;3044;43.232;27.972;2023-07-02T05:34:47;45001.47;;;-143.84;70.26
6032;BME280;3044;43.232;27.972;2023-07-02T05:37:14;45018.59;;;-143.84;69.53
6032;BME280;3044;43.232;27.972;2023-07-02T05:39:43;45030.03;;;-143.84;71.09
6032;BME280;3044;43.232;27.972;2023-07-02T05:42:10;45022.41;;;-143.84;71.20
6032;BME280;3044;43.232;27.972;2023-07-02T05:44:37;45007.19;;;-143.84;71.65
6032;BME280;3044;43.232;27.972;2023-07-02T05:47:04;45001.47;;;-143.84;71.91
6032;BME280;3044;43.232;27.972;2023-07-02T05:49:31;44999.56;;;-143.84;71.65
6032;BME280;3044;43.232;27.972;2023-07-02T05:51:58;45005.28;;;-143.84;71.40
6032;BME280;3044;43.232;27.972;2023-07-02T05:54:25;44972.91;;;-143.84;71.71
6032;BME280;3044;43.232;27.972;2023-07-02T05:56:53;45001.47;;;-143.84;70.48
6032;BME280;3044;43.232;27.972;2023-07-02T05:59:21;45001.47;;;-143.84;70.96
6032;BME280;3044;43.232;27.972;2023-07-02T06:01:48;44971.00;;;-143.84;70.80
6032;BME280;3044;43.232;27.972;2023-07-02T06:04:15;45007.19;;;-143.84;70.12
6032;BME280;3044;43.232;27.972;2023-07-02T06:06:42;45028.13;;;-143.84;69.36
6032;BME280;3044;43.232;27.972;2023-07-02T06:09:09;45003.38;;;-143.84;70.07
6032;BME280;3044;43.232;27.972;2023-07-02T06:11:36;44997.66;;;-143.84;70.70
6032;BME280;3044;43.232;27.972;2023-07-02T06:14:05;44999.56;;;-143.84;68.95
6032;BME280;3044;43.232;27.972;2023-07-02T06:16:32;45009.09;;;-143.84;67.33
6032;BME280;3044;43.232;27.972;2023-07-02T06:18:59;45003.38;;;-143.84;68.77
6032;BME280;3044;43.232;27.972;2023-07-02T06:21:26;44984.31;;;-143.84;67.61
6032;BME280;3044;43.232;27.972;2023-07-02T06:23:56;44988.13;;;-143.84;67.95
6032;BME280;3044;43.232;27.972;2023-07-02T06:26:23;44986.22;;;-143.84;67.45
6032;BME280;3044;43.232;27.972;2023-07-02T06:28:51;44988.13;;;-143.84;68.35
6032;BME280;3044;43.232;27.972;2023-07-02T06:31:19;45018.59;;;-143.84;68.89
6032;BME280;3044;43.232;27.972;2023-07-02T06:33:46;44995.75;;;-143.84;69.53
6032;BME280;3044;43.232;27.972;2023-07-02T06:36:13;44995.75;;;-143.84;70.44
6032;BME280;3044;43.232;27.972;2023-07-02T06:38:41;44995.75;;;-143.84;73.02
6032;BME280;3044;43.232;27.972;2023-07-02T06:41:08;44999.56;;;-143.84;71.25
6032;BME280;3044;43.232;27.972;2023-07-02T06:43:35;44999.56;;;-143.84;71.20
6032;BME280;3044;43.232;27.972;2023-07-02T06:46:02;45020.50;;;-143.84;72.84
6032;BME280;3044;43.232;27.972;2023-07-02T06:48:30;44995.75;;;-143.84;73.27
6032;BME280;3044;43.232;27.972;2023-07-02T06:50:58;45010.97;;;-143.84;74.21
6032;BME280;3044;43.232;27.972;2023-07-02T06:53:25;45018.59;;;-143.84;73.97
6032;BME280;3044;43.232;27.972;2023-07-02T06:55:52;44988.13;;;-143.84;74.39
6032;BME280;3044;43.232;27.972;2023-07-02T06:58:19;44976.72;;;-143.84;74.49
6032;BME280;3044;43.232;27.972;2023-07-02T07:00:46;45001.47;;;-143.84;74.51
6032;BME280;3044;43.232;27.972;2023-07-02T07:03:15;44986.22;;;-143.84;74.41
6032;BME280;3044;43.232;27.972;2023-07-02T07:05:44;45005.28;;;-143.84;75.05
6032;BME280;3044;43.232;27.972;2023-07-02T07:08:11;45003.38;;;-143.84;74.63
6032;BME280;3044;43.232;27.972;2023-07-02T07:10:38;44986.22;;;-143.84;73.93
6032;BME280;3044;43.232;27.972;2023-07-02T07:13:06;44991.94;;;-143.84;73.34
6032;BME280;3044;43.232;27.972;2023-07-02T07:15:34;44967.19;;;-143.84;73.59
6032;BME280;3044;43.232;27.972;2023-07-02T07:18:02;45022.41;;;-143.84;73.40
6032;BME280;3044;43.232;27.972;2023-07-02T07:20:29;45009.09;;;-143.84;73.34
6032;BME280;3044;43.232;27.972;2023-07-02T07:22:58;44997.66;;;-143.84;72.59
6032;BME280;3044;43.232;27.972;2023-07-02T07:25:25;44991.94;;;-143.84;70.99
6032;BME280;3044;43.232;27.972;2023-07-02T07:27:52;44978.63;;;-143.84;69.19
6032;BME280;3044;43.232;27.972;2023-07-02T07:30:20;44940.53;;;-143.84;71.79
6032;BME280;3044;43.232;27.972;2023-07-02T07:32:49;44961.47;;;-143.84;68.96
6032;BME280;3044;43.232;27.972;2023-07-02T07:35:16;44980.53;;;-143.84;64.75
6032;BME280;3044;43.232;27.972;2023-07-02T07:37:44;44963.38;;;-143.84;66.32
6032;BME280;3044;43.232;27.972;2023-07-02T07:40:13;45005.28;;;-143.84;69.05
6032;BME280;3044;43.232;27.972;2023-07-02T07:42:40;44988.13;;;-143.84;69.21
6032;BME280;3044;43.232;27.972;2023-07-02T07:45:09;45009.09;;;-143.84;70.40
6032;BME280;3044;43.232;27.972;2023-07-02T07:47:36;44980.53;;;-143.84;70.98
6032;BME280;3044;43.232;27.972;2023-07-02T07:50:04;44971.00;;;-143.84;71.03
6032;BME280;3044;43.232;27.972;2023-07-02T07:52:37;45007.19;;;-143.84;70.86
6032;BME280;3044;43.232;27.972;2023-07-02T07:55:05;44990.03;;;-143.84;70.82
6032;BME280;3044;43.232;27.972;2023-07-02T07:57:34;44997.66;;;-143.84;70.80
6032;BME280;3044;43.232;27.972;2023-07-02T08:00:02;44980.53;;;-143.84;70.26
6032;BME280;3044;43.232;27.972;2023-07-02T08:02:29;45009.09;;;-143.84;69.27
6032;BME280;3044;43.232;27.972;2023-07-02T08:04:57;44999.56;;;-143.84;67.94
6032;BME280;3044;43.232;27.972;2023-07-02T08:07:24;45016.69;;;-143.84;67.70
6032;BME280;3044;43.232;27.972;2023-07-02T08:09:51;45007.19;;;-143.84;68.26
6032;BME280;3044;43.232;27.972;2023-07-02T08:12:18;45037.66;;;-143.84;69.60
6032;BME280;3044;43.232;27.972;2023-07-02T08:14:46;44990.03;;;-143.84;67.14
6032;BME280;3044;43.232;27.972;2023-07-02T08:17:13;45007.19;;;-143.84;69.46
6032;BME280;3044;43.232;27.972;2023-07-02T08:19:41;44988.13;;;-143.84;69.27
6032;BME280;3044;43.232;27.972;2023-07-02T08:22:08;45007.19;;;-143.84;67.76
6032;BME280;3044;43.232;27.972;2023-07-02T08:24:35;44957.66;;;-143.84;66.81
6032;BME280;3044;43.232;27.972;2023-07-02T08:27:02;44976.72;;;-143.84;67.29
6032;BME280;3044;43.232;27.972;2023-07-02T08:29:29;45003.38;;;-143.84;68.54
6032;BME280;3044;43.232;27.972;2023-07-02T08:31:58;44971.00;;;-143.84;66.63
6032;BME280;3044;43.232;27.972;2023-07-02T08:34:25;44982.41;;;-143.84;66.33
6032;BME280;3044;43.232;27.972;2023-07-02T08:36:53;44978.63;;;-143.84;63.66
6032;BME280;3044;43.232;27.972;2023-07-02T08:39:20;44948.16;;;-143.84;65.98
6032;BME280;3044;43.232;27.972;2023-07-02T08:41:48;45001.47;;;-143.84;68.22
6032;BME280;3044;43.232;27.972;2023-07-02T08:44:19;44976.72;;;-143.84;69.09
6032;BME280;3044;43.232;27.972;2023-07-02T08:46:47;44972.91;;;-143.84;69.49
6032;BME280;3044;43.232;27.972;2023-07-02T08:49:17;44974.81;;;-143.84;69.28
6032;BME280;3044;43.232;27.972;2023-07-02T08:51:45;44965.28;;;-143.84;69.86
6032;BME280;3044;43.232;27.972;2023-07-02T08:54:12;44963.38;;;-143.84;69.88
6032;BME280;3044;43.232;27.972;2023-07-02T08:56:40;45003.38;;;-143.84;70.88
6032;BME280;3044;43.232;27.972;2023-07-02T08:59:07;44972.91;;;-143.84;70.46
6032;BME280;3044;43.232;27.972;2023-07-02T09:01:44;44982.41;;;-143.84;70.66
6032;BME280;3044;43.232;27.972;2023-07-02T09:04:17;44942.44;;;-143.84;69.65
6032;BME280;3044;43.232;27.972;2023-07-02T09:06:44;44988.13;;;-143.84;69.07
6032;BME280;3044;43.232;27.972;2023-07-02T09:09:11;44957.66;;;-143.84;69.58
6032;BME280;3044;43.232;27.972;2023-07-02T09:11:48;44997.66;;;-143.84;71.20
6032;BME280;3044;43.232;27.972;2023-07-02T09:14:26;44972.91;;;-143.84;69.75
6032;BME280;3044;43.232;27.972;2023-07-02T09:17:04;44974.81;;;-143.84;70.97
6032;BME280;3044;43.232;27.972;2023-07-02T09:19:33;45003.38;;;-143.84;69.61
6032;BME280;3044;43.232;27.972;2023-07-02T09:22:02;44988.13;;;-143.84;70.37
6032;BME280;3044;43.232;27.972;2023-07-02T09:24:30;44967.19;;;-143.84;71.00
6032;BME280;3044;43.232;27.972;2023-07-02T09:26:59;44976.72;;;-143.84;71.61
6032;BME280;3044;43.232;27.972;2023-07-02T09:29:29;44953.88;;;-143.84;69.28
6032;BME280;3044;43.232;27.972;2023-07-02T09:31:57;45005.28;;;-143.84;69.99
6032;BME280;3044;43.232;27.972;2023-07-02T09:34:28;44991.94;;;-143.84;70.40
6032;BME280;3044;43.232;27.972;2023-07-02T09:36:57;44991.94;;;-143.84;69.70
6032;BME280;3044;43.232;27.972;2023-07-02T09:39:29;44965.28;;;-143.84;68.24
6032;BME280;3044;43.232;27.972;2023-07-02T09:41:57;44988.13;;;-143.84;67.64
6032;BME280;3044;43.232;27.972;2023-07-02T09:44:28;44972.91;;;-143.84;66.60
6032;BME280;3044;43.232;27.972;2023-07-02T09:47:01;44948.16;;;-143.84;66.40
6032;BME280;3044;43.232;27.972;2023-07-02T09:49:32;44946.25;;;-143.84;65.85
6032;BME280;3044;43.232;27.972;2023-07-02T09:52:03;44942.44;;;-143.84;66.82
6032;BME280;3044;43.232;27.972;2023-07-02T09:54:31;44991.94;;;-143.84;65.28
6032;BME280;3044;43.232;27.972;2023-07-02T09:56:59;44953.88;;;-143.84;65.98
6032;BME280;3044;43.232;27.972;2023-07-02T09:59:26;44955.75;;;-143.84;64.41
6032;BME280;3044;43.232;27.972;2023-07-02T10:01:53;44972.91;;;-143.84;66.33
6032;BME280;3044;43.232;27.972;2023-07-02T10:04:21;44982.41;;;-143.84;65.72
6032;BME280;3044;43.232;27.972;2023-07-02T10:06:50;44931.00;;;-143.84;65.65
6032;BME280;3044;43.232;27.972;2023-07-02T10:09:19;44971.00;;;-143.84;64.16
6032;BME280;3044;43.232;27.972;2023-07-02T10:11:47;44972.91;;;-143.84;62.92
6032;BME280;3044;43.232;27.972;2023-07-02T10:14:14;44963.38;;;-143.84;64.42
6032;BME280;3044;43.232;27.972;2023-07-02T10:16:51;44959.56;;;-143.84;64.61
6032;BME280;3044;43.232;27.972;2023-07-02T10:19:19;44971.00;;;-143.84;63.11
6032;BME280;3044;43.232;27.972;2023-07-02T10:21:46;44963.38;;;-143.84;65.04
6032;BME280;3044;43.232;27.972;2023-07-02T10:24:16;44967.19;;;-143.84;64.87
6032;BME280;3044;43.232;27.972;2023-07-02T10:26:55;44959.56;;;-143.84;66.48
6032;BME280;3044;43.232;27.972;2023-07-02T10:29:23;44950.06;;;-143.84;64.52
6032;BME280;3044;43.232;27.972;2023-07-02T10:31:51;44931.00;;;-143.84;66.29
6032;BME280;3044;43.232;27.972;2023-07-02T10:34:31;44991.94;;;-143.84;64.51
6032;BME280;3044;43.232;27.972;2023-07-02T10:37:00;44993.84;;;-143.84;63.25
6032;BME280;3044;43.232;27.972;2023-07-02T10:39:28;44971.00;;;-143.84;61.91
6032;BME280;3044;43.232;27.972;2023-07-02T10:42:05;44969.09;;;-143.84;63.89
6032;BME280;3044;43.232;27.972;2023-07-02T10:44:33;44976.72;;;-143.84;60.39
6032;BME280;3044;43.232;27.972;2023-07-02T10:47:00;44990.03;;;-143.84;64.31
6032;BME280;3044;43.232;27.972;2023-07-02T10:49:31;44972.91;;;-143.84;65.05
6032;BME280;3044;43.232;27.972;2023-07-02T10:51:59;44971.00;;;-143.84;64.63
6032;BME280;3044;43.232;27.972;2023-07-02T10:54:37;44982.41;;;-143.84;63.91
6032;BME280;3044;43.232;27.972;2023-07-02T10:57:07;44959.56;;;-143.84;64.62
6032;BME280;3044;43.232;27.972;2023-07-02T10:59:34;44971.00;;;-143.84;65.90
6032;BME280;3044;43.232;27.972;2023-07-02T11:02:02;44959.56;;;-143.84;64.19
6032;BME280;3044;43.232;27.972;2023-07-02T11:04:29;44934.81;;;-143.84;63.94
6032;BME280;3044;43.232;27.972;2023-07-02T11:06:57;44980.53;;;-143.84;64.81
6032;BME280;3044;43.232;27.972;2023-07-02T11:09:25;44969.09;;;-143.84;64.15
6032;BME280;3044;43.232;27.972;2023-07-02T11:11:54;44963.38;;;-143.84;64.87
6032;BME280;3044;43.232;27.972;2023-07-02T11:14:30;44959.56;;;-143.84;64.92
6032;BME280;3044;43.232;27.972;2023-07-02T11:16:59;44950.06;;;-143.84;65.16
6032;BME280;3044;43.232;27.972;2023-07-02T11:19:28;44948.16;;;-143.84;65.94
6032;BME280;3044;43.232;27.972;2023-07-02T11:21:56;44967.19;;;-143.84;65.33
6032;BME280;3044;43.232;27.972;2023-07-02T11:24:28;44969.09;;;-143.84;65.62
6032;BME280;3044;43.232;27.972;2023-07-02T11:26:55;44951.97;;;-143.84;64.63
6032;BME280;3044;43.232;27.972;2023-07-02T11:29:23;44965.28;;;-143.84;64.39
6032;BME280;3044;43.232;27.972;2023-07-02T11:31:51;44990.03;;;-143.84;64.43
6032;BME280;3044;43.232;27.972;2023-07-02T11:34:20;44931.00;;;-143.84;62.77
6032;BME280;3044;43.232;27.972;2023-07-02T11:36:50;44974.81;;;-143.84;64.53
6032;BME280;3044;43.232;27.972;2023-07-02T11:39:19;44976.72;;;-143.84;63.96
6032;BME280;3044;43.232;27.972;2023-07-02T11:41:47;44957.66;;;-143.84;62.97
6032;BME280;3044;43.232;27.972;2023-07-02T11:44:16;44988.13;;;-143.84;63.71
6032;BME280;3044;43.232;27.972;2023-07-02T11:46:43;44961.47;;;-143.84;63.92
6032;BME280;3044;43.232;27.972;2023-07-02T11:49:12;44982.41;;;-143.84;63.03
6032;BME280;3044;43.232;27.972;2023-07-02T11:51:39;44982.41;;;-143.84;63.67
6032;BME280;3044;43.232;27.972;2023-07-02T11:54:07;44986.22;;;-143.84;64.76
6032;BME280;3044;43.232;27.972;2023-07-02T11:56:34;44995.75;;;-143.84;67.08
6032;BME280;3044;43.232;27.972;2023-07-02T11:59:01;44991.94;;;-143.84;67.94
6032;BME280;3044;43.232;27.972;2023-07-02T12:01:28;44990.03;;;-143.84;69.75
6032;BME280;3044;43.232;27.972;2023-07-02T12:03:55;44969.09;;;-143.84;69.37
6032;BME280;3044;43.232;27.972;2023-07-02T12:06:24;45001.47;;;-143.84;69.10
6032;BME280;3044;43.232;27.972;2023-07-02T12:08:51;44991.94;;;-143.84;69.72
6032;BME280;3044;43.232;27.972;2023-07-02T12:11:18;45007.19;;;-143.84;70.09
6032;BME280;3044;43.232;27.972;2023-07-02T12:13:45;45005.28;;;-143.84;68.80
6032;BME280;3044;43.232;27.972;2023-07-02T12:16:12;44999.56;;;-143.84;69.87
6032;BME280;3044;43.232;27.972;2023-07-02T12:18:39;45003.38;;;-143.84;70.90
6032;BME280;3044;43.232;27.972;2023-07-02T12:21:06;44990.03;;;-143.84;71.57
6032;BME280;3044;43.232;27.972;2023-07-02T12:23:35;45007.19;;;-143.84;71.28
6032;BME280;3044;43.232;27.972;2023-07-02T12:26:02;44988.13;;;-143.84;71.31
6032;BME280;3044;43.232;27.972;2023-07-02T12:28:29;44995.75;;;-143.84;71.79
6032;BME280;3044;43.232;27.972;2023-07-02T12:30:56;44995.75;;;-143.84;72.53
6032;BME280;3044;43.232;27.972;2023-07-02T12:33:23;45009.09;;;-143.84;71.50
6032;BME280;3044;43.232;27.972;2023-07-02T12:35:50;45001.47;;;-143.84;71.21
6032;BME280;3044;43.232;27.972;2023-07-02T12:38:17;44980.53;;;-143.84;71.15
6032;BME280;3044;43.232;27.972;2023-07-02T12:40:47;44997.66;;;-143.84;71.85
6032;BME280;3044;43.232;27.972;2023-07-02T12:43:15;45001.47;;;-143.84;72.56
6032;BME280;3044;43.232;27.972;2023-07-02T12:45:42;44986.22;;;-143.84;73.44
6032;BME280;3044;43.232;27.972;2023-07-02T12:48:09;44995.75;;;-143.84;74.87
6032;BME280;3044;43.232;27.972;2023-07-02T12:50:37;45003.38;;;-143.84;73.97
6032;BME280;3044;43.232;27.972;2023-07-02T12:53:05;44991.94;;;-143.84;75.38
6032;BME280;3044;43.232;27.972;2023-07-02T12:55:32;44997.66;;;-143.84;76.02